sensor_id;sensor_type;location;lat;lon;timestamp;temperature;humidity
19636;DHT22;9965;50.774;7.188;2022-07-23T00:01:16;19.40;99.90
19636;DHT22;9965;50.774;7.188;2022-07-23T00:03:42;19.50;99.90
19636;DHT22;9965;50.774;7.188;2022-07-23T00:06:08;19.50;99.90
19636;DHT22;9965;50.774;7.188;2022-07-23T00:08:33;19.50;99.90
19636;DHT22;9965;50.774;7.188;2022-07-23T00:10:59;19.40;99.90
19636;DHT22;9965;50.774;7.188;2022-07-23T00:13:26;19.50;99.90
19636;DHT22;9965;50.774;7.188;2022-07-23T00:15:52;19.50;99.90
19636;DHT22;9965;50.774;7.188;2022-07-23T00:18:18;19.70;99.90
19636;DHT22;9965;50.774;7.188;2022-07-23T00:20:43;19.60;99.90
19636;DHT22;9965;50.774;7.188;2022-07-23T00:23:09;19.70;99.90
19636;DHT22;9965;50.774;7.188;2022-07-23T00:25:35;19.70;99.90
19636;DHT22;9965;50.774;7.188;2022-07-23T00:28:01;19.80;99.90
19636;DHT22;9965;50.774;7.188;2022-07-23T00:30:28;19.70;99.90
19636;DHT22;9965;50.774;7.188;2022-07-23T00:32:59;19.70;99.90
19636;DHT22;9965;50.774;7.188;2022-07-23T00:35:27;19.80;99.90
19636;DHT22;9965;50.774;7.188;2022-07-23T00:37:54;19.70;99.90
19636;DHT22;9965;50.774;7.188;2022-07-23T00:40:21;19.60;99.90
19636;DHT22;9965;50.774;7.188;2022-07-23T00:42:46;19.50;99.90
19636;DHT22;9965;50.774;7.188;2022-07-23T00:45:12;19.50;99.90
19636;DHT22;9965;50.774;7.188;2022-07-23T00:47:38;19.50;99.90
19636;DHT22;9965;50.774;7.188;2022-07-23T00:50:06;19.40;99.90
19636;DHT22;9965;50.774;7.188;2022-07-23T00:52:32;19.40;99.90
19636;DHT22;9965;50.774;7.188;2022-07-23T00:54:58;19.30;99.90
19636;DHT22;9965;50.774;7.188;2022-07-23T00:57:24;19.40;99.90
19636;DHT22;9965;50.774;7.188;2022-07-23T00:59:50;19.40;99.90
19636;DHT22;9965;50.774;7.188;2022-07-23T01:02:16;19.40;99.90
19636;DHT22;9965;50.774;7.188;2022-07-23T01:04:42;19.40;99.90
19636;DHT22;9965;50.774;7.188;2022-07-23T01:07:07;19.30;99.90
19636;DHT22;9965;50.774;7.188;2022-07-23T01:09:33;19.30;99.90
19636;DHT22;9965;50.774;7.188;2022-07-23T01:11:59;19.40;99.90
19636;DHT22;9965;50.774;7.188;2022-07-23T01:14:26;19.40;99.90
19636;DHT22;9965;50.774;7.188;2022-07-23T01:16:52;19.20;99.90
19636;DHT22;9965;50.774;7.188;2022-07-23T01:19:19;19.10;99.90
19636;DHT22;9965;50.774;7.188;2022-07-23T01:21:47;19.10;99.90
19636;DHT22;9965;50.774;7.188;2022-07-23T01:24:13;19.20;99.90
19636;DHT22;9965;50.774;7.188;2022-07-23T01:26:42;19.10;99.90
19636;DHT22;9965;50.774;7.188;2022-07-23T01:29:08;19.10;99.90
19636;DHT22;9965;50.774;7.188;2022-07-23T01:31:34;19.00;99.90
19636;DHT22;9965;50.774;7.188;2022-07-23T01:34:00;19.00;99.90
19636;DHT22;9965;50.774;7.188;2022-07-23T01:36:26;19.00;99.90
19636;DHT22;9965;50.774;7.188;2022-07-23T01:38:52;18.90;99.90
19636;DHT22;9965;50.774;7.188;2022-07-23T01:44:35;18.90;99.90
19636;DHT22;9965;50.774;7.188;2022-07-23T01:47:01;18.90;99.90
19636;DHT22;9965;50.774;7.188;2022-07-23T01:49:26;18.90;99.90
19636;DHT22;9965;50.774;7.188;2022-07-23T01:51:52;18.90;99.90
19636;DHT22;9965;50.774;7.188;2022-07-23T01:54:27;18.80;99.90
19636;DHT22;9965;50.774;7.188;2022-07-23T01:56:53;18.90;99.90
19636;DHT22;9965;50.774;7.188;2022-07-23T01:59:19;19.00;99.90
19636;DHT22;9965;50.774;7.188;2022-07-23T02:01:45;19.00;99.90
19636;DHT22;9965;50.774;7.188;2022-07-23T02:04:11;18.80;99.90
19636;DHT22;9965;50.774;7.188;2022-07-23T02:06:36;19.10;99.90
19636;DHT22;9965;50.774;7.188;2022-07-23T02:09:02;19.10;99.90
19636;DHT22;9965;50.774;7.188;2022-07-23T02:11:28;19.00;99.90
19636;DHT22;9965;50.774;7.188;2022-07-23T02:13:53;19.00;99.90
19636;DHT22;9965;50.774;7.188;2022-07-23T02:16:19;18.90;99.90
19636;DHT22;9965;50.774;7.188;2022-07-23T02:18:45;19.00;99.90
19636;DHT22;9965;50.774;7.188;2022-07-23T02:21:12;19.10;99.90
19636;DHT22;9965;50.774;7.188;2022-07-23T02:23:38;19.10;99.90
19636;DHT22;9965;50.774;7.188;2022-07-23T02:26:04;19.20;99.90
19636;DHT22;9965;50.774;7.188;2022-07-23T02:28:29;19.10;99.90
19636;DHT22;9965;50.774;7.188;2022-07-23T02:30:56;19.10;99.90
19636;DHT22;9965;50.774;7.188;2022-07-23T02:33:22;19.10;99.90
19636;DHT22;9965;50.774;7.188;2022-07-23T02:35:48;19.10;99.90
19636;DHT22;9965;50.774;7.188;2022-07-23T02:38:13;19.10;99.90
19636;DHT22;9965;50.774;7.188;2022-07-23T02:40:39;19.10;99.90
19636;DHT22;9965;50.774;7.188;2022-07-23T02:43:05;18.90;99.90
19636;DHT22;9965;50.774;7.188;2022-07-23T02:45:30;18.90;99.90
19636;DHT22;9965;50.774;7.188;2022-07-23T02:47:56;18.80;99.90
19636;DHT22;9965;50.774;7.188;2022-07-23T02:50:22;18.80;99.90
19636;DHT22;9965;50.774;7.188;2022-07-23T02:52:47;18.80;99.90
19636;DHT22;9965;50.774;7.188;2022-07-23T02:55:13;18.90;99.90
19636;DHT22;9965;50.774;7.188;2022-07-23T02:57:39;18.80;99.90
19636;DHT22;9965;50.774;7.188;2022-07-23T03:00:05;18.80;99.90
19636;DHT22;9965;50.774;7.188;2022-07-23T03:02:31;18.80;99.90
19636;DHT22;9965;50.774;7.188;2022-07-23T03:04:57;18.90;99.90
19636;DHT22;9965;50.774;7.188;2022-07-23T03:07:23;18.80;99.90
19636;DHT22;9965;50.774;7.188;2022-07-23T03:09:48;18.90;99.90
19636;DHT22;9965;50.774;7.188;2022-07-23T03:12:14;18.90;99.90
19636;DHT22;9965;50.774;7.188;2022-07-23T03:14:40;18.80;99.90
19636;DHT22;9965;50.774;7.188;2022-07-23T03:17:06;18.80;99.90
19636;DHT22;9965;50.774;7.188;2022-07-23T03:19:32;18.90;99.90
19636;DHT22;9965;50.774;7.188;2022-07-23T03:21:58;18.90;99.90
19636;DHT22;9965;50.774;7.188;2022-07-23T03:24:23;18.90;99.90
19636;DHT22;9965;50.774;7.188;2022-07-23T03:27:09;18.70;99.90
19636;DHT22;9965;50.774;7.188;2022-07-23T03:29:34;18.60;99.90
19636;DHT22;9965;50.774;7.188;2022-07-23T03:32:03;18.60;99.90
19636;DHT22;9965;50.774;7.188;2022-07-23T03:34:29;18.60;99.90
19636;DHT22;9965;50.774;7.188;2022-07-23T03:36:54;18.50;99.90
19636;DHT22;9965;50.774;7.188;2022-07-23T03:39:20;18.40;99.90
19636;DHT22;9965;50.774;7.188;2022-07-23T03:41:45;18.40;99.90
19636;DHT22;9965;50.774;7.188;2022-07-23T03:44:11;18.30;99.90
19636;DHT22;9965;50.774;7.188;2022-07-23T03:46:37;18.50;99.90
19636;DHT22;9965;50.774;7.188;2022-07-23T03:49:02;18.40;99.90
19636;DHT22;9965;50.774;7.188;2022-07-23T03:51:28;18.30;99.90
19636;DHT22;9965;50.774;7.188;2022-07-23T03:53:54;18.10;99.90
19636;DHT22;9965;50.774;7.188;2022-07-23T03:56:21;18.10;99.90
19636;DHT22;9965;50.774;7.188;2022-07-23T03:58:46;18.10;99.90
19636;DHT22;9965;50.774;7.188;2022-07-23T04:01:12;18.10;99.90
19636;DHT22;9965;50.774;7.188;2022-07-23T04:03:38;18.10;99.90
19636;DHT22;9965;50.774;7.188;2022-07-23T04:06:03;18.10;99.90
19636;DHT22;9965;50.774;7.188;2022-07-23T04:08:29;18.20;99.90
19636;DHT22;9965;50.774;7.188;2022-07-23T04:10:55;18.20;99.90
19636;DHT22;9965;50.774;7.188;2022-07-23T04:13:20;18.30;99.90
19636;DHT22;9965;50.774;7.188;2022-07-23T04:15:46;18.30;99.90
19636;DHT22;9965;50.774;7.188;2022-07-23T04:18:12;18.20;99.90
19636;DHT22;9965;50.774;7.188;2022-07-23T04:20:38;18.10;99.90
19636;DHT22;9965;50.774;7.188;2022-07-23T04:23:03;18.10;99.90
19636;DHT22;9965;50.774;7.188;2022-07-23T04:25:29;18.20;99.90
19636;DHT22;9965;50.774;7.188;2022-07-23T04:27:55;18.20;99.90
19636;DHT22;9965;50.774;7.188;2022-07-23T04:30:20;18.30;99.90
19636;DHT22;9965;50.774;7.188;2022-07-23T04:32:46;18.30;99.90
19636;DHT22;9965;50.774;7.188;2022-07-23T04:35:12;18.30;99.90
19636;DHT22;9965;50.774;7.188;2022-07-23T04:37:37;18.30;99.90
19636;DHT22;9965;50.774;7.188;2022-07-23T04:40:03;18.30;99.90
19636;DHT22;9965;50.774;7.188;2022-07-23T04:42:29;18.40;99.90
19636;DHT22;9965;50.774;7.188;2022-07-23T04:44:55;18.40;99.90
19636;DHT22;9965;50.774;7.188;2022-07-23T04:47:20;18.40;99.90
19636;DHT22;9965;50.774;7.188;2022-07-23T04:49:46;18.50;99.90
19636;DHT22;9965;50.774;7.188;2022-07-23T04:52:12;18.40;99.90
19636;DHT22;9965;50.774;7.188;2022-07-23T04:54:37;18.50;99.90
19636;DHT22;9965;50.774;7.188;2022-07-23T04:57:03;18.40;99.90
19636;DHT22;9965;50.774;7.188;2022-07-23T04:59:28;18.40;99.90
19636;DHT22;9965;50.774;7.188;2022-07-23T05:01:54;18.30;99.90
19636;DHT22;9965;50.774;7.188;2022-07-23T05:04:20;18.30;99.90
19636;DHT22;9965;50.774;7.188;2022-07-23T05:06:45;18.10;99.90
19636;DHT22;9965;50.774;7.188;2022-07-23T05:09:11;18.00;99.90
19636;DHT22;9965;50.774;7.188;2022-07-23T05:11:36;18.00;99.90
19636;DHT22;9965;50.774;7.188;2022-07-23T05:14:02;17.90;99.90
19636;DHT22;9965;50.774;7.188;2022-07-23T05:16:28;17.90;99.90
19636;DHT22;9965;50.774;7.188;2022-07-23T05:18:53;18.00;99.90
19636;DHT22;9965;50.774;7.188;2022-07-23T05:21:19;18.10;99.90
19636;DHT22;9965;50.774;7.188;2022-07-23T05:23:45;18.10;99.90
19636;DHT22;9965;50.774;7.188;2022-07-23T05:26:11;17.90;99.90
19636;DHT22;9965;50.774;7.188;2022-07-23T05:28:36;17.90;99.90
19636;DHT22;9965;50.774;7.188;2022-07-23T05:31:02;18.10;99.90
19636;DHT22;9965;50.774;7.188;2022-07-23T05:33:29;18.20;99.90
19636;DHT22;9965;50.774;7.188;2022-07-23T05:36:03;18.30;99.90
19636;DHT22;9965;50.774;7.188;2022-07-23T05:38:29;18.50;99.90
19636;DHT22;9965;50.774;7.188;2022-07-23T05:40:55;18.80;99.90
19636;DHT22;9965;50.774;7.188;2022-07-23T05:43:21;18.80;99.90
19636;DHT22;9965;50.774;7.188;2022-07-23T05:45:46;18.90;99.90
19636;DHT22;9965;50.774;7.188;2022-07-23T05:48:12;18.90;99.90
19636;DHT22;9965;50.774;7.188;2022-07-23T05:50:38;18.90;99.90
19636;DHT22;9965;50.774;7.188;2022-07-23T05:53:04;19.00;99.90
19636;DHT22;9965;50.774;7.188;2022-07-23T05:55:29;18.80;99.90
19636;DHT22;9965;50.774;7.188;2022-07-23T05:57:57;18.80;99.90
19636;DHT22;9965;50.774;7.188;2022-07-23T06:00:24;18.80;99.90
19636;DHT22;9965;50.774;7.188;2022-07-23T06:02:50;18.70;99.90
19636;DHT22;9965;50.774;7.188;2022-07-23T06:05:16;18.90;99.90
19636;DHT22;9965;50.774;7.188;2022-07-23T06:07:41;19.10;99.90
19636;DHT22;9965;50.774;7.188;2022-07-23T06:10:08;19.00;99.90
19636;DHT22;9965;50.774;7.188;2022-07-23T06:12:34;19.10;99.90
19636;DHT22;9965;50.774;7.188;2022-07-23T06:15:00;19.00;99.90
19636;DHT22;9965;50.774;7.188;2022-07-23T06:17:26;19.00;99.90
19636;DHT22;9965;50.774;7.188;2022-07-23T06:19:52;19.00;99.90
19636;DHT22;9965;50.774;7.188;2022-07-23T06:22:18;19.10;99.90
19636;DHT22;9965;50.774;7.188;2022-07-23T06:24:44;19.00;99.90
19636;DHT22;9965;50.774;7.188;2022-07-23T06:27:09;19.00;99.90
19636;DHT22;9965;50.774;7.188;2022-07-23T06:29:35;19.30;99.90
19636;DHT22;9965;50.774;7.188;2022-07-23T06:32:01;19.40;99.90
19636;DHT22;9965;50.774;7.188;2022-07-23T06:34:26;19.50;99.90
19636;DHT22;9965;50.774;7.188;2022-07-23T06:36:52;19.50;99.90
19636;DHT22;9965;50.774;7.188;2022-07-23T06:39:17;19.70;99.90
19636;DHT22;9965;50.774;7.188;2022-07-23T06:41:43;19.80;99.90
19636;DHT22;9965;50.774;7.188;2022-07-23T06:44:09;20.10;99.90
19636;DHT22;9965;50.774;7.188;2022-07-23T06:46:35;19.90;99.90
19636;DHT22;9965;50.774;7.188;2022-07-23T06:49:00;19.50;99.90
19636;DHT22;9965;50.774;7.188;2022-07-23T06:51:26;19.60;99.90
19636;DHT22;9965;50.774;7.188;2022-07-23T06:53:52;19.80;99.90
19636;DHT22;9965;50.774;7.188;2022-07-23T06:56:17;20.10;99.90
19636;DHT22;9965;50.774;7.188;2022-07-23T06:58:43;20.00;99.90
19636;DHT22;9965;50.774;7.188;2022-07-23T07:01:09;20.10;99.90
19636;DHT22;9965;50.774;7.188;2022-07-23T07:03:34;20.20;99.90
19636;DHT22;9965;50.774;7.188;2022-07-23T07:06:00;20.80;99.90
19636;DHT22;9965;50.774;7.188;2022-07-23T07:08:27;20.50;99.90
19636;DHT22;9965;50.774;7.188;2022-07-23T07:10:52;20.90;99.90
19636;DHT22;9965;50.774;7.188;2022-07-23T07:13:18;20.90;99.90
19636;DHT22;9965;50.774;7.188;2022-07-23T07:15:43;21.10;99.90
19636;DHT22;9965;50.774;7.188;2022-07-23T07:18:09;21.50;99.90
19636;DHT22;9965;50.774;7.188;2022-07-23T07:20:35;21.80;99.90
19636;DHT22;9965;50.774;7.188;2022-07-23T07:23:00;21.90;99.90
19636;DHT22;9965;50.774;7.188;2022-07-23T07:25:26;22.10;99.90
19636;DHT22;9965;50.774;7.188;2022-07-23T07:27:52;22.20;99.90
19636;DHT22;9965;50.774;7.188;2022-07-23T07:30:17;22.10;99.90
19636;DHT22;9965;50.774;7.188;2022-07-23T07:32:43;22.00;99.90
19636;DHT22;9965;50.774;7.188;2022-07-23T07:35:09;22.50;99.90
19636;DHT22;9965;50.774;7.188;2022-07-23T07:37:35;23.00;99.90
19636;DHT22;9965;50.774;7.188;2022-07-23T07:40:00;23.30;99.90
19636;DHT22;9965;50.774;7.188;2022-07-23T07:42:26;23.60;99.90
19636;DHT22;9965;50.774;7.188;2022-07-23T07:44:52;23.80;99.90
19636;DHT22;9965;50.774;7.188;2022-07-23T07:47:17;23.40;99.90
19636;DHT22;9965;50.774;7.188;2022-07-23T07:49:43;23.50;99.90
19636;DHT22;9965;50.774;7.188;2022-07-23T07:52:09;23.30;99.90
19636;DHT22;9965;50.774;7.188;2022-07-23T07:54:36;23.00;99.90
19636;DHT22;9965;50.774;7.188;2022-07-23T07:57:01;23.10;99.90
19636;DHT22;9965;50.774;7.188;2022-07-23T07:59:27;23.20;99.90
19636;DHT22;9965;50.774;7.188;2022-07-23T08:01:53;22.60;99.90
19636;DHT22;9965;50.774;7.188;2022-07-23T08:04:19;22.60;99.90
19636;DHT22;9965;50.774;7.188;2022-07-23T08:06:45;22.10;99.90
19636;DHT22;9965;50.774;7.188;2022-07-23T08:09:10;22.30;99.90
19636;DHT22;9965;50.774;7.188;2022-07-23T08:11:36;22.40;99.90
19636;DHT22;9965;50.774;7.188;2022-07-23T08:14:02;22.50;99.90
19636;DHT22;9965;50.774;7.188;2022-07-23T08:16:27;22.10;99.90
19636;DHT22;9965;50.774;7.188;2022-07-23T08:18:53;22.50;99.90
19636;DHT22;9965;50.774;7.188;2022-07-23T08:21:19;22.50;99.90
19636;DHT22;9965;50.774;7.188;2022-07-23T08:23:44;22.60;99.90
19636;DHT22;9965;50.774;7.188;2022-07-23T08:26:10;22.90;99.90
19636;DHT22;9965;50.774;7.188;2022-07-23T08:28:36;22.70;99.90
19636;DHT22;9965;50.774;7.188;2022-07-23T08:31:01;22.90;99.90
19636;DHT22;9965;50.774;7.188;2022-07-23T08:33:27;23.00;99.90
19636;DHT22;9965;50.774;7.188;2022-07-23T08:35:53;23.20;99.90
19636;DHT22;9965;50.774;7.188;2022-07-23T08:38:20;23.40;99.90
19636;DHT22;9965;50.774;7.188;2022-07-23T08:40:52;23.90;99.90
19636;DHT22;9965;50.774;7.188;2022-07-23T08:43:22;23.50;99.90
19636;DHT22;9965;50.774;7.188;2022-07-23T08:45:50;23.50;99.90
19636;DHT22;9965;50.774;7.188;2022-07-23T08:48:18;23.20;99.90
19636;DHT22;9965;50.774;7.188;2022-07-23T08:50:56;23.50;99.90
19636;DHT22;9965;50.774;7.188;2022-07-23T08:53:24;23.70;99.90
19636;DHT22;9965;50.774;7.188;2022-07-23T08:55:52;23.80;99.90
19636;DHT22;9965;50.774;7.188;2022-07-23T08:58:18;24.70;99.90
19636;DHT22;9965;50.774;7.188;2022-07-23T09:00:45;23.90;99.90
19636;DHT22;9965;50.774;7.188;2022-07-23T09:03:16;23.30;99.90
19636;DHT22;9965;50.774;7.188;2022-07-23T09:05:42;23.20;99.90
19636;DHT22;9965;50.774;7.188;2022-07-23T09:08:35;23.70;99.90
19636;DHT22;9965;50.774;7.188;2022-07-23T09:11:04;23.40;99.90
19636;DHT22;9965;50.774;7.188;2022-07-23T09:13:34;23.40;99.90
19636;DHT22;9965;50.774;7.188;2022-07-23T09:16:09;23.50;99.90
19636;DHT22;9965;50.774;7.188;2022-07-23T09:21:30;23.20;99.90
19636;DHT22;9965;50.774;7.188;2022-07-23T09:24:04;23.10;99.90
19636;DHT22;9965;50.774;7.188;2022-07-23T09:26:38;23.00;99.90
19636;DHT22;9965;50.774;7.188;2022-07-23T09:31:44;23.30;99.90
19636;DHT22;9965;50.774;7.188;2022-07-23T09:34:16;23.50;99.90
19636;DHT22;9965;50.774;7.188;2022-07-23T09:36:42;23.10;99.90
19636;DHT22;9965;50.774;7.188;2022-07-23T09:39:09;22.90;99.90
19636;DHT22;9965;50.774;7.188;2022-07-23T09:41:41;22.80;99.90
19636;DHT22;9965;50.774;7.188;2022-07-23T09:44:19;22.80;99.90
19636;DHT22;9965;50.774;7.188;2022-07-23T09:46:47;22.70;99.90
19636;DHT22;9965;50.774;7.188;2022-07-23T09:49:22;23.00;99.90
19636;DHT22;9965;50.774;7.188;2022-07-23T09:51:53;23.20;99.90
19636;DHT22;9965;50.774;7.188;2022-07-23T09:54:28;23.40;99.90
19636;DHT22;9965;50.774;7.188;2022-07-23T09:56:57;23.50;99.90
19636;DHT22;9965;50.774;7.188;2022-07-23T09:59:28;23.70;99.90
19636;DHT22;9965;50.774;7.188;2022-07-23T10:01:55;23.80;99.90
19636;DHT22;9965;50.774;7.188;2022-07-23T10:04:23;23.60;99.90
19636;DHT22;9965;50.774;7.188;2022-07-23T10:06:52;23.50;99.90
19636;DHT22;9965;50.774;7.188;2022-07-23T10:09:32;23.60;99.90
19636;DHT22;9965;50.774;7.188;2022-07-23T10:12:03;23.70;99.90
19636;DHT22;9965;50.774;7.188;2022-07-23T10:14:41;23.50;99.90
19636;DHT22;9965;50.774;7.188;2022-07-23T10:17:08;23.30;99.90
19636;DHT22;9965;50.774;7.188;2022-07-23T10:19:34;23.30;99.90
19636;DHT22;9965;50.774;7.188;2022-07-23T10:22:04;23.40;99.90
19636;DHT22;9965;50.774;7.188;2022-07-23T10:24:52;23.40;99.90
19636;DHT22;9965;50.774;7.188;2022-07-23T10:27:39;23.50;99.90
19636;DHT22;9965;50.774;7.188;2022-07-23T10:32:56;23.70;99.90
19636;DHT22;9965;50.774;7.188;2022-07-23T10:41:05;23.60;99.90
19636;DHT22;9965;50.774;7.188;2022-07-23T10:43:31;23.40;99.90
19636;DHT22;9965;50.774;7.188;2022-07-23T10:46:21;23.60;99.90
19636;DHT22;9965;50.774;7.188;2022-07-23T10:49:31;23.40;99.90
19636;DHT22;9965;50.774;7.188;2022-07-23T10:54:44;23.80;99.90
19636;DHT22;9965;50.774;7.188;2022-07-23T10:57:11;24.00;99.90
19636;DHT22;9965;50.774;7.188;2022-07-23T11:02:35;23.80;99.90
19636;DHT22;9965;50.774;7.188;2022-07-23T11:05:04;24.00;99.90
19636;DHT22;9965;50.774;7.188;2022-07-23T11:07:31;24.30;99.90
19636;DHT22;9965;50.774;7.188;2022-07-23T11:09:57;24.50;99.90
19636;DHT22;9965;50.774;7.188;2022-07-23T11:15:01;24.80;99.90
19636;DHT22;9965;50.774;7.188;2022-07-23T11:17:27;25.00;99.90
19636;DHT22;9965;50.774;7.188;2022-07-23T11:20:12;25.10;99.90
19636;DHT22;9965;50.774;7.188;2022-07-23T11:22:41;25.30;99.90
19636;DHT22;9965;50.774;7.188;2022-07-23T11:25:14;24.90;99.90
19636;DHT22;9965;50.774;7.188;2022-07-23T11:27:54;24.60;99.90
19636;DHT22;9965;50.774;7.188;2022-07-23T11:35:34;25.10;99.90
19636;DHT22;9965;50.774;7.188;2022-07-23T11:38:06;25.10;99.90
19636;DHT22;9965;50.774;7.188;2022-07-23T11:40:33;25.10;99.90
19636;DHT22;9965;50.774;7.188;2022-07-23T11:43:04;25.30;99.90
19636;DHT22;9965;50.774;7.188;2022-07-23T11:45:33;25.40;99.90
19636;DHT22;9965;50.774;7.188;2022-07-23T11:47:59;25.40;99.90
19636;DHT22;9965;50.774;7.188;2022-07-23T11:50:25;25.60;99.90
19636;DHT22;9965;50.774;7.188;2022-07-23T11:52:53;25.60;99.90
19636;DHT22;9965;50.774;7.188;2022-07-23T11:55:19;25.20;99.90
19636;DHT22;9965;50.774;7.188;2022-07-23T11:57:45;25.60;99.90
19636;DHT22;9965;50.774;7.188;2022-07-23T12:00:12;25.50;99.90
19636;DHT22;9965;50.774;7.188;2022-07-23T12:02:39;25.20;99.90
19636;DHT22;9965;50.774;7.188;2022-07-23T12:05:05;25.30;99.90
19636;DHT22;9965;50.774;7.188;2022-07-23T12:07:36;25.50;99.90
19636;DHT22;9965;50.774;7.188;2022-07-23T12:12:45;25.70;99.90
19636;DHT22;9965;50.774;7.188;2022-07-23T12:15:13;25.60;99.90
19636;DHT22;9965;50.774;7.188;2022-07-23T12:17:41;25.60;99.90
19636;DHT22;9965;50.774;7.188;2022-07-23T12:20:09;25.50;99.90
19636;DHT22;9965;50.774;7.188;2022-07-23T12:22:46;25.60;99.90
19636;DHT22;9965;50.774;7.188;2022-07-23T12:25:13;25.50;99.90
19636;DHT22;9965;50.774;7.188;2022-07-23T12:27:39;25.60;99.90
19636;DHT22;9965;50.774;7.188;2022-07-23T12:30:18;25.70;99.90
19636;DHT22;9965;50.774;7.188;2022-07-23T12:32:48;25.70;99.90
19636;DHT22;9965;50.774;7.188;2022-07-23T12:35:14;25.70;99.90
19636;DHT22;9965;50.774;7.188;2022-07-23T12:37:42;25.90;99.90
19636;DHT22;9965;50.774;7.188;2022-07-23T12:43:04;26.10;99.90
19636;DHT22;9965;50.774;7.188;2022-07-23T12:45:46;26.00;99.90
19636;DHT22;9965;50.774;7.188;2022-07-23T12:51:07;25.80;99.90
19636;DHT22;9965;50.774;7.188;2022-07-23T12:53:48;25.90;99.90
19636;DHT22;9965;50.774;7.188;2022-07-23T12:56:26;26.00;99.90
19636;DHT22;9965;50.774;7.188;2022-07-23T12:58:56;25.90;99.90
19636;DHT22;9965;50.774;7.188;2022-07-23T13:01:27;25.70;99.90
19636;DHT22;9965;50.774;7.188;2022-07-23T13:04:10;25.90;99.90
19636;DHT22;9965;50.774;7.188;2022-07-23T13:06:48;25.70;99.90
19636;DHT22;9965;50.774;7.188;2022-07-23T13:09:19;25.70;99.90
19636;DHT22;9965;50.774;7.188;2022-07-23T13:11:47;25.60;99.90
19636;DHT22;9965;50.774;7.188;2022-07-23T13:14:15;25.90;99.90
19636;DHT22;9965;50.774;7.188;2022-07-23T13:16:42;25.90;99.90
19636;DHT22;9965;50.774;7.188;2022-07-23T13:19:08;26.00;99.90
19636;DHT22;9965;50.774;7.188;2022-07-23T13:21:34;26.00;99.90
19636;DHT22;9965;50.774;7.188;2022-07-23T13:24:00;25.90;99.90
19636;DHT22;9965;50.774;7.188;2022-07-23T13:26:26;25.80;99.90
19636;DHT22;9965;50.774;7.188;2022-07-23T13:28:52;25.80;99.90
19636;DHT22;9965;50.774;7.188;2022-07-23T13:31:17;25.70;99.90
19636;DHT22;9965;50.774;7.188;2022-07-23T13:33:43;25.60;99.90
19636;DHT22;9965;50.774;7.188;2022-07-23T13:36:09;25.80;99.90
19636;DHT22;9965;50.774;7.188;2022-07-23T13:38:35;26.10;99.90
19636;DHT22;9965;50.774;7.188;2022-07-23T13:41:01;26.30;99.90
19636;DHT22;9965;50.774;7.188;2022-07-23T13:43:28;26.40;99.90
19636;DHT22;9965;50.774;7.188;2022-07-23T13:45:54;26.30;99.90
19636;DHT22;9965;50.774;7.188;2022-07-23T13:48:20;26.20;99.90
19636;DHT22;9965;50.774;7.188;2022-07-23T13:50:46;26.30;99.90
19636;DHT22;9965;50.774;7.188;2022-07-23T13:53:15;26.50;99.90
19636;DHT22;9965;50.774;7.188;2022-07-23T13:55:42;26.80;99.90
19636;DHT22;9965;50.774;7.188;2022-07-23T13:58:09;26.50;99.90
19636;DHT22;9965;50.774;7.188;2022-07-23T14:00:37;26.40;99.90
19636;DHT22;9965;50.774;7.188;2022-07-23T14:03:03;26.30;99.90
19636;DHT22;9965;50.774;7.188;2022-07-23T14:05:29;26.40;99.90
19636;DHT22;9965;50.774;7.188;2022-07-23T14:07:55;26.30;99.90
19636;DHT22;9965;50.774;7.188;2022-07-23T14:10:22;26.30;99.90
19636;DHT22;9965;50.774;7.188;2022-07-23T14:12:48;26.30;99.90
19636;DHT22;9965;50.774;7.188;2022-07-23T14:15:14;26.20;99.90
19636;DHT22;9965;50.774;7.188;2022-07-23T14:17:42;26.20;99.90
19636;DHT22;9965;50.774;7.188;2022-07-23T14:20:09;26.30;99.90
19636;DHT22;9965;50.774;7.188;2022-07-23T14:22:35;26.20;99.90
19636;DHT22;9965;50.774;7.188;2022-07-23T14:25:01;26.40;99.90
19636;DHT22;9965;50.774;7.188;2022-07-23T14:27:27;26.30;99.90
19636;DHT22;9965;50.774;7.188;2022-07-23T14:29:54;26.60;99.90
19636;DHT22;9965;50.774;7.188;2022-07-23T14:32:20;26.50;99.90
19636;DHT22;9965;50.774;7.188;2022-07-23T14:34:46;26.70;99.90
19636;DHT22;9965;50.774;7.188;2022-07-23T14:37:12;26.90;99.90
19636;DHT22;9965;50.774;7.188;2022-07-23T14:39:42;26.70;99.90
19636;DHT22;9965;50.774;7.188;2022-07-23T14:42:08;26.60;99.90
19636;DHT22;9965;50.774;7.188;2022-07-23T14:44:35;26.90;99.90
19636;DHT22;9965;50.774;7.188;2022-07-23T14:47:01;27.20;99.90
19636;DHT22;9965;50.774;7.188;2022-07-23T14:49:27;27.30;99.90
19636;DHT22;9965;50.774;7.188;2022-07-23T14:51:53;27.30;99.90
19636;DHT22;9965;50.774;7.188;2022-07-23T14:54:19;27.10;99.90
19636;DHT22;9965;50.774;7.188;2022-07-23T14:56:46;27.10;99.90
19636;DHT22;9965;50.774;7.188;2022-07-23T14:59:12;27.00;99.90
19636;DHT22;9965;50.774;7.188;2022-07-23T15:01:38;27.20;99.90
19636;DHT22;9965;50.774;7.188;2022-07-23T15:04:05;27.00;99.90
19636;DHT22;9965;50.774;7.188;2022-07-23T15:06:31;27.00;99.90
19636;DHT22;9965;50.774;7.188;2022-07-23T15:08:57;27.20;99.90
19636;DHT22;9965;50.774;7.188;2022-07-23T15:11:23;27.20;99.90
19636;DHT22;9965;50.774;7.188;2022-07-23T15:13:49;27.30;99.90
19636;DHT22;9965;50.774;7.188;2022-07-23T15:16:15;27.40;99.90
19636;DHT22;9965;50.774;7.188;2022-07-23T15:18:40;27.50;99.90
19636;DHT22;9965;50.774;7.188;2022-07-23T15:21:06;27.30;99.90
19636;DHT22;9965;50.774;7.188;2022-07-23T15:23:32;27.00;99.90
19636;DHT22;9965;50.774;7.188;2022-07-23T15:25:58;27.00;99.90
19636;DHT22;9965;50.774;7.188;2022-07-23T15:28:24;26.90;99.90
19636;DHT22;9965;50.774;7.188;2022-07-23T15:30:50;26.80;99.90
19636;DHT22;9965;50.774;7.188;2022-07-23T15:33:17;26.90;99.90
19636;DHT22;9965;50.774;7.188;2022-07-23T15:35:43;26.70;99.90
19636;DHT22;9965;50.774;7.188;2022-07-23T15:38:09;26.60;99.90
19636;DHT22;9965;50.774;7.188;2022-07-23T15:40:34;26.50;99.90
19636;DHT22;9965;50.774;7.188;2022-07-23T15:43:01;26.50;99.90
19636;DHT22;9965;50.774;7.188;2022-07-23T15:45:26;26.80;99.90
19636;DHT22;9965;50.774;7.188;2022-07-23T15:47:52;27.10;99.90
19636;DHT22;9965;50.774;7.188;2022-07-23T15:50:17;27.50;99.90
19636;DHT22;9965;50.774;7.188;2022-07-23T15:52:43;27.30;99.90
19636;DHT22;9965;50.774;7.188;2022-07-23T15:55:09;27.10;99.90
19636;DHT22;9965;50.774;7.188;2022-07-23T15:57:35;27.00;99.90
19636;DHT22;9965;50.774;7.188;2022-07-23T16:00:01;26.60;99.90
19636;DHT22;9965;50.774;7.188;2022-07-23T16:02:27;26.70;99.90
19636;DHT22;9965;50.774;7.188;2022-07-23T16:04:53;26.70;99.90
19636;DHT22;9965;50.774;7.188;2022-07-23T16:07:20;26.90;99.90
19636;DHT22;9965;50.774;7.188;2022-07-23T16:09:46;26.80;99.90
19636;DHT22;9965;50.774;7.188;2022-07-23T16:12:12;26.60;99.90
19636;DHT22;9965;50.774;7.188;2022-07-23T16:14:38;26.40;99.90
19636;DHT22;9965;50.774;7.188;2022-07-23T16:17:04;26.50;99.90
19636;DHT22;9965;50.774;7.188;2022-07-23T16:19:30;26.60;99.90
19636;DHT22;9965;50.774;7.188;2022-07-23T16:21:56;26.80;99.90
19636;DHT22;9965;50.774;7.188;2022-07-23T16:24:22;26.80;99.90